KSWF/SWF METAR and TAF weather

Enter ICAO airport designator
Station Type Date Time Source
KSWF METAR 2023/03/21 05:45 UTC NOAA

KSWF 210545Z VRB05KT 10SM SKC 03/M08 A3024


Station Type Date Time Source
KSWF Decoded METAR 2023/03/21 05:45 UTC NOAA

Newburgh / Stewart, NY, United States (KSWF) 41-30N 074-06W
Mar 21, 2023 - 01:45 AM EDT / 2023.03.21 0545 UTC
Wind: Variable at 6 MPH (5 KT):0
Visibility: 10 mile(s):0
Sky conditions: clear
Temperature: 37 F (3 C)
Dew Point: 17 F (-8 C)
Relative Humidity: 44%
Pressure (altimeter): 30.24 in. Hg (1024 hPa)
ob: KSWF 210545Z VRB05KT 10SM SKC 03/M08 A3024
cycle: 6

Station Type Date Time Source
KSWF TAF 2023/03/21 06:24 UTC NOAA

TAF KSWF 210521Z 2106/2212 VRB04KT P6SM SKC
FM211400 25009KT P6SM FEW200
FM211800 25012KT P6SM SCT200
FM212200 24006KT P6SM BKN200
FM220100 VRB03KT P6SM BKN150
AMD NOT SKED

Example: see airport list